createdAt,value
2023-05-05T00:00:09.501Z,27.03
2023-05-05T00:01:09.388Z,27.06
2023-05-05T00:02:09.372Z,27.06
2023-05-05T00:03:09.455Z,27.07
2023-05-05T00:04:09.409Z,27.08
2023-05-05T00:05:09.773Z,27.07
2023-05-05T00:06:09.420Z,27.05
2023-05-05T00:07:09.434Z,27.09
2023-05-05T00:08:09.355Z,27.12
2023-05-05T00:09:09.376Z,27.10
2023-05-05T00:10:09.575Z,27.10
2023-05-05T00:11:09.406Z,27.10
2023-05-05T00:12:09.410Z,27.09
2023-05-05T00:13:09.489Z,27.12
2023-05-05T00:14:09.412Z,27.11
2023-05-05T00:15:09.405Z,27.15
2023-05-05T00:16:09.428Z,27.12
2023-05-05T00:17:09.443Z,27.13
2023-05-05T00:18:09.444Z,27.16
2023-05-05T00:19:09.421Z,27.16
2023-05-05T00:20:09.540Z,27.18
2023-05-05T00:21:09.432Z,27.17
2023-05-05T00:22:09.373Z,27.18
2023-05-05T00:23:09.427Z,27.17
2023-05-05T00:24:09.374Z,27.18
2023-05-05T00:25:09.389Z,27.19
2023-05-05T00:26:09.410Z,27.17
2023-05-05T00:27:09.397Z,27.19
2023-05-05T00:28:10.294Z,27.18
2023-05-05T00:29:09.420Z,27.22
2023-05-05T00:30:09.628Z,27.21
2023-05-05T00:31:09.425Z,27.23
2023-05-05T00:32:09.398Z,27.23
2023-05-05T00:33:09.335Z,27.23
2023-05-05T00:34:09.421Z,27.23
2023-05-05T00:35:09.359Z,27.24
2023-05-05T00:36:09.375Z,27.26
2023-05-05T00:37:09.367Z,27.25
2023-05-05T00:38:09.391Z,27.27
2023-05-05T00:39:09.352Z,27.25
2023-05-05T00:40:09.555Z,27.26
2023-05-05T00:41:09.350Z,27.27
2023-05-05T00:42:09.380Z,27.28
2023-05-05T00:43:09.394Z,27.29
2023-05-05T00:44:09.389Z,27.30
2023-05-05T00:45:09.799Z,27.29
2023-05-05T00:46:09.446Z,27.31
2023-05-05T00:47:09.337Z,27.28
2023-05-05T00:48:09.392Z,27.29
2023-05-05T00:49:09.384Z,27.29
2023-05-05T00:50:09.529Z,27.31
2023-05-05T00:51:09.378Z,27.33
2023-05-05T00:52:09.389Z,27.33
2023-05-05T00:53:09.331Z,27.33
2023-05-05T00:55:16.311Z,27.34
2023-05-05T00:56:16.465Z,27.36
2023-05-05T00:57:16.732Z,27.36
2023-05-05T00:58:16.887Z,27.35
2023-05-05T00:59:17.047Z,27.36
2023-05-05T01:00:17.202Z,27.37
2023-05-05T01:01:17.601Z,27.36
2023-05-05T01:02:17.493Z,27.39
2023-05-05T01:03:17.797Z,27.38
2023-05-05T01:04:17.921Z,27.39
2023-05-05T01:05:18.054Z,27.39
2023-05-05T01:06:18.187Z,27.40
2023-05-05T01:07:18.157Z,27.38
2023-05-05T01:08:18.247Z,27.39
2023-05-05T01:09:18.285Z,27.40
2023-05-05T01:10:20.702Z,27.40
2023-05-05T01:11:18.570Z,27.43
2023-05-05T01:12:18.634Z,27.39
2023-05-05T01:13:18.698Z,27.43
2023-05-05T01:14:18.743Z,27.42
2023-05-05T01:15:18.802Z,27.42
2023-05-05T01:16:18.902Z,27.43
2023-05-05T01:17:18.937Z,27.43
2023-05-05T01:18:18.960Z,27.44
2023-05-05T01:19:19.042Z,27.44
2023-05-05T01:20:19.089Z,27.45
2023-05-05T01:21:19.145Z,27.44
2023-05-05T01:22:19.210Z,27.44
2023-05-05T01:23:19.478Z,27.47
2023-05-05T01:24:19.311Z,27.45
2023-05-05T01:25:19.345Z,27.46
2023-05-05T01:26:19.407Z,27.47
2023-05-05T01:27:19.514Z,27.48
2023-05-05T01:28:19.421Z,27.49
2023-05-05T01:29:19.460Z,27.50
2023-05-05T01:30:19.468Z,27.47
2023-05-05T01:31:19.681Z,27.50
2023-05-05T01:32:19.790Z,27.51
2023-05-05T01:33:19.663Z,27.52
2023-05-05T01:34:19.650Z,27.53
2023-05-05T01:35:19.698Z,27.53
2023-05-05T01:36:19.776Z,27.53
2023-05-05T01:37:19.797Z,27.54
2023-05-05T01:38:19.834Z,27.55
2023-05-05T01:39:19.918Z,27.53
2023-05-05T01:40:19.920Z,27.54
2023-05-05T01:41:20.005Z,27.54
2023-05-05T01:42:20.101Z,27.53
2023-05-05T01:43:20.102Z,27.55
2023-05-05T01:44:20.125Z,27.56
2023-05-05T01:45:20.101Z,27.56
2023-05-05T01:46:20.271Z,27.56
2023-05-05T01:47:20.142Z,27.59
2023-05-05T01:48:20.211Z,27.58
2023-05-05T01:49:20.206Z,27.60
2023-05-05T01:50:20.264Z,27.59
2023-05-05T01:51:20.282Z,27.60
2023-05-05T01:52:20.328Z,27.61
2023-05-05T01:53:20.341Z,27.61
2023-05-05T01:54:20.401Z,27.60
2023-05-05T01:55:20.616Z,27.61
2023-05-05T01:56:20.416Z,27.64
2023-05-05T01:57:20.407Z,27.61
2023-05-05T01:58:20.417Z,27.64
2023-05-05T01:59:20.428Z,27.64
2023-05-05T02:00:20.437Z,27.65
2023-05-05T02:01:20.516Z,27.66
2023-05-05T02:02:20.537Z,27.66
2023-05-05T02:03:20.623Z,27.66
2023-05-05T02:04:20.530Z,27.66
2023-05-05T02:05:20.521Z,27.67
2023-05-05T02:06:20.536Z,27.65
2023-05-05T02:07:20.581Z,27.66
2023-05-05T02:08:20.548Z,27.66
2023-05-05T02:09:20.601Z,27.66
2023-05-05T02:10:21.071Z,27.70
2023-05-05T02:11:20.616Z,27.68
2023-05-05T02:12:20.577Z,27.71
2023-05-05T02:13:20.802Z,27.69
2023-05-05T02:14:20.632Z,27.69
2023-05-05T02:15:20.668Z,27.70
2023-05-05T02:16:20.735Z,27.71
2023-05-05T02:17:20.720Z,27.69
2023-05-05T02:18:20.717Z,27.73
2023-05-05T02:19:20.701Z,27.72
2023-05-05T02:20:20.720Z,27.74
2023-05-05T02:21:20.800Z,27.73
2023-05-05T02:22:20.740Z,27.75
2023-05-05T02:23:20.759Z,27.74
2023-05-05T02:24:20.746Z,27.76
2023-05-05T02:25:20.749Z,27.77
2023-05-05T02:26:20.781Z,27.76
2023-05-05T02:27:20.827Z,27.77
2023-05-05T02:28:20.842Z,27.77
2023-05-05T02:29:20.846Z,27.78
2023-05-05T02:30:20.813Z,27.78
2023-05-05T02:31:21.233Z,27.78
2023-05-05T02:32:21.090Z,27.80
2023-05-05T02:33:20.884Z,27.81
2023-05-05T02:34:20.867Z,27.80
2023-05-05T02:35:20.843Z,27.80
2023-05-05T02:36:20.866Z,27.80
2023-05-05T02:37:20.887Z,27.80
2023-05-05T02:38:20.839Z,27.80
2023-05-05T02:39:20.860Z,27.82
2023-05-05T02:40:20.850Z,27.82
2023-05-05T02:41:20.867Z,27.84
2023-05-05T02:42:20.863Z,27.85
2023-05-05T02:43:20.939Z,27.86
2023-05-05T02:44:20.841Z,27.87
2023-05-05T02:45:20.862Z,27.88
2023-05-05T02:46:20.888Z,27.85
2023-05-05T02:47:20.814Z,27.87
2023-05-05T02:48:20.896Z,27.86
2023-05-05T02:49:20.873Z,27.87
2023-05-05T02:50:20.898Z,27.87
2023-05-05T02:51:20.887Z,27.89
2023-05-05T02:52:20.853Z,27.88
2023-05-05T02:53:20.914Z,27.89
2023-05-05T02:54:20.848Z,27.91
2023-05-05T02:55:20.855Z,27.93
2023-05-05T02:56:20.875Z,27.91
2023-05-05T02:57:20.886Z,27.92
2023-05-05T02:58:20.868Z,27.93
2023-05-05T02:59:20.982Z,27.92
2023-05-05T03:00:20.904Z,27.91
2023-05-05T03:01:20.909Z,27.92
2023-05-05T03:02:20.931Z,27.92
2023-05-05T03:03:21.077Z,27.92
2023-05-05T03:04:20.925Z,27.96
2023-05-05T03:05:20.933Z,27.97
2023-05-05T03:06:20.941Z,27.98
2023-05-05T03:07:20.954Z,27.98
2023-05-05T03:08:20.960Z,27.98
2023-05-05T03:09:20.942Z,27.97
2023-05-05T03:10:20.968Z,27.99
2023-05-05T03:11:20.961Z,27.98
2023-05-05T03:12:20.971Z,28.00
2023-05-05T03:13:21.001Z,27.99
2023-05-05T03:14:20.980Z,28.01
2023-05-05T03:15:20.987Z,28.02
2023-05-05T03:16:21.032Z,28.04
2023-05-05T03:17:21.034Z,28.03
2023-05-05T03:18:21.021Z,28.04
2023-05-05T03:19:21.039Z,28.03
2023-05-05T03:20:21.038Z,28.02
2023-05-05T03:21:21.029Z,28.02
2023-05-05T03:22:21.035Z,28.04
2023-05-05T03:23:21.208Z,28.04
2023-05-05T03:24:21.049Z,28.04
2023-05-05T03:25:21.126Z,28.04
2023-05-05T03:26:21.674Z,28.07
2023-05-05T03:27:21.070Z,28.04
2023-05-05T03:28:21.076Z,28.07
2023-05-05T03:29:21.081Z,28.08
2023-05-05T03:30:21.095Z,28.08
2023-05-05T03:31:21.174Z,28.08
2023-05-05T03:32:21.107Z,28.09
2023-05-05T03:33:21.637Z,28.08
2023-05-05T03:34:21.183Z,28.10
2023-05-05T03:35:21.235Z,28.08
2023-05-05T03:36:21.199Z,28.11
2023-05-05T03:37:21.157Z,28.12
2023-05-05T03:38:21.208Z,28.11
2023-05-05T03:39:21.230Z,28.11
2023-05-05T03:40:29.689Z,28.13
2023-05-05T03:41:22.247Z,28.13
2023-05-05T03:42:21.259Z,28.15
2023-05-05T03:43:21.198Z,28.13
2023-05-05T03:44:21.175Z,28.15
2023-05-05T03:45:21.199Z,28.13
2023-05-05T03:46:21.223Z,28.14
2023-05-05T03:47:21.172Z,28.16
2023-05-05T03:48:21.172Z,28.14
2023-05-05T03:49:21.189Z,28.14
2023-05-05T03:50:21.187Z,28.17
2023-05-05T03:51:21.148Z,28.16
2023-05-05T03:52:21.148Z,28.17
2023-05-05T03:53:21.207Z,28.18
2023-05-05T03:54:21.139Z,28.18
2023-05-05T03:55:21.236Z,28.17
2023-05-05T03:56:21.086Z,28.17
2023-05-05T03:57:21.143Z,28.19
2023-05-05T03:58:21.086Z,28.21
2023-05-05T03:59:21.111Z,28.19
2023-05-05T04:00:21.177Z,28.20
2023-05-05T04:01:21.170Z,28.18
2023-05-05T04:02:21.342Z,28.18
2023-05-05T04:03:21.278Z,28.20
2023-05-05T04:04:21.246Z,28.19
2023-05-05T04:05:21.194Z,28.19
2023-05-05T04:06:21.301Z,28.20
2023-05-05T04:07:21.312Z,28.19
2023-05-05T04:08:21.325Z,28.18
2023-05-05T04:09:21.341Z,28.20
2023-05-05T04:10:21.393Z,28.18
2023-05-05T04:11:21.410Z,28.18
2023-05-05T04:12:21.382Z,28.16
2023-05-05T04:13:21.457Z,28.17
2023-05-05T04:14:21.479Z,28.15
2023-05-05T04:15:21.508Z,28.17
2023-05-05T04:16:21.529Z,28.18
2023-05-05T04:17:21.489Z,28.13
2023-05-05T04:18:21.494Z,28.16
2023-05-05T04:19:21.546Z,28.15
2023-05-05T04:20:21.657Z,28.16
2023-05-05T04:21:21.555Z,28.14
2023-05-05T04:22:21.557Z,28.12
2023-05-05T04:23:21.567Z,28.11
2023-05-05T04:24:21.645Z,28.08
2023-05-05T04:25:21.575Z,27.95
2023-05-05T04:26:21.586Z,27.72
2023-05-05T04:27:21.666Z,27.42
2023-05-05T04:28:22.014Z,27.23
2023-05-05T04:29:21.671Z,27.19
2023-05-05T04:30:21.773Z,27.28
2023-05-05T04:31:21.872Z,27.40
2023-05-05T04:32:21.924Z,27.49
2023-05-05T04:33:21.898Z,27.59
2023-05-05T04:34:21.938Z,27.66
2023-05-05T04:35:21.968Z,27.68
2023-05-05T04:36:22.009Z,27.71
2023-05-05T04:37:22.038Z,27.75
2023-05-05T04:38:22.100Z,27.81
2023-05-05T04:39:21.980Z,27.86
2023-05-05T04:40:21.982Z,27.89
2023-05-05T04:41:21.992Z,27.92
2023-05-05T04:42:22.093Z,27.95
2023-05-05T04:43:22.011Z,27.96
2023-05-05T04:44:22.135Z,27.98
2023-05-05T04:45:22.028Z,27.75
2023-05-05T04:46:22.069Z,27.31
2023-05-05T04:47:22.046Z,27.09
2023-05-05T04:48:22.052Z,26.98
2023-05-05T04:49:22.113Z,26.94
2023-05-05T04:50:22.117Z,26.87
2023-05-05T04:51:22.161Z,26.89
2023-05-05T04:52:22.226Z,27.10
2023-05-05T04:53:22.303Z,27.28
2023-05-05T04:54:22.257Z,27.42
2023-05-05T04:55:22.262Z,27.55
2023-05-05T04:56:22.255Z,27.64
2023-05-05T04:57:22.262Z,27.73
2023-05-05T04:58:22.285Z,27.79
2023-05-05T04:59:22.349Z,27.86
2023-05-05T05:00:22.276Z,27.90
2023-05-05T05:01:22.360Z,27.93
2023-05-05T05:02:22.395Z,27.96
2023-05-05T05:03:22.730Z,28.01
2023-05-05T05:04:22.269Z,28.04
2023-05-05T05:05:22.302Z,28.02
2023-05-05T05:06:22.335Z,28.05
2023-05-05T05:07:22.449Z,28.05
2023-05-05T05:08:22.342Z,28.05
2023-05-05T05:09:23.186Z,28.09
2023-05-05T05:10:22.326Z,28.08
2023-05-05T05:11:22.377Z,28.10
2023-05-05T05:12:22.477Z,28.13
2023-05-05T05:13:23.241Z,28.14
2023-05-05T05:14:22.337Z,28.15
2023-05-05T05:15:22.396Z,28.15
2023-05-05T05:16:22.415Z,28.16
2023-05-05T05:17:22.434Z,28.18
2023-05-05T05:18:22.412Z,28.20
2023-05-05T05:19:22.419Z,28.19
2023-05-05T05:20:22.422Z,28.19
2023-05-05T05:21:22.434Z,28.18
2023-05-05T05:22:22.432Z,28.18
2023-05-05T05:23:22.484Z,28.20
2023-05-05T05:24:22.499Z,28.19
2023-05-05T05:25:22.505Z,28.22
2023-05-05T05:26:22.520Z,28.22
2023-05-05T05:27:22.500Z,28.22
2023-05-05T05:28:22.689Z,28.20
2023-05-05T05:29:22.534Z,28.23
2023-05-05T05:30:22.596Z,28.25
2023-05-05T05:31:22.642Z,28.35
2023-05-05T05:32:22.638Z,28.23
2023-05-05T05:33:22.651Z,28.25
2023-05-05T05:34:22.681Z,28.35
2023-05-05T05:35:22.731Z,28.56
2023-05-05T05:36:22.685Z,28.73
2023-05-05T05:37:22.689Z,28.77
2023-05-05T05:38:22.695Z,28.97
2023-05-05T05:39:22.771Z,29.04
2023-05-05T05:40:22.773Z,30.09
2023-05-05T05:41:22.823Z,30.68
2023-05-05T05:42:22.919Z,31.74
2023-05-05T05:43:22.827Z,33.15
2023-05-05T05:44:23.342Z,33.07
2023-05-05T05:45:22.917Z,32.60
2023-05-05T05:46:23.050Z,31.23
2023-05-05T05:47:22.992Z,30.68
2023-05-05T05:48:23.058Z,30.29
2023-05-05T05:49:23.289Z,30.42
2023-05-05T05:50:23.041Z,30.35
2023-05-05T05:51:23.161Z,30.64
2023-05-05T05:52:23.184Z,30.95
2023-05-05T05:53:23.103Z,30.73
2023-05-05T05:54:23.176Z,31.00
2023-05-05T05:55:23.732Z,30.91
2023-05-05T05:56:23.186Z,30.81
2023-05-05T05:57:23.702Z,31.13
2023-05-05T05:58:23.405Z,30.61
2023-05-05T05:59:23.239Z,30.72
2023-05-05T06:00:23.265Z,30.74
2023-05-05T06:01:23.342Z,30.56
2023-05-05T06:02:23.345Z,30.69
2023-05-05T06:03:23.385Z,30.48
2023-05-05T06:04:23.601Z,30.55
2023-05-05T06:05:23.246Z,30.51
2023-05-05T06:06:23.289Z,30.45
2023-05-05T06:07:23.257Z,30.69
2023-05-05T06:08:25.130Z,30.66
2023-05-05T06:09:23.284Z,30.54
2023-05-05T06:10:28.012Z,30.45
2023-05-05T06:11:23.284Z,30.48
2023-05-05T06:12:24.217Z,30.54
2023-05-05T06:13:23.716Z,30.63
2023-05-05T06:14:23.348Z,30.40
2023-05-05T06:15:24.280Z,30.59
2023-05-05T06:16:24.270Z,30.55
2023-05-05T06:17:23.343Z,30.28
2023-05-05T06:18:23.311Z,30.86
2023-05-05T06:19:24.190Z,30.62
2023-05-05T06:20:23.193Z,30.57
2023-05-05T06:21:23.686Z,30.19
2023-05-05T06:22:23.204Z,30.10
2023-05-05T06:23:23.159Z,30.12
2023-05-05T06:24:23.776Z,30.09
2023-05-05T06:25:23.176Z,30.19
2023-05-05T06:26:23.116Z,30.09
2023-05-05T06:27:23.119Z,30.09
2023-05-05T06:28:23.184Z,30.13
2023-05-05T06:29:23.142Z,30.07
2023-05-05T06:30:23.218Z,30.03
2023-05-05T06:31:23.127Z,30.25
2023-05-05T06:32:23.234Z,30.36
2023-05-05T06:33:23.177Z,30.87
2023-05-05T06:34:23.249Z,30.55
2023-05-05T06:35:23.155Z,31.07
2023-05-05T06:36:23.245Z,31.65
2023-05-05T06:37:23.207Z,31.30
2023-05-05T06:38:23.202Z,31.21
2023-05-05T06:39:23.306Z,30.73
2023-05-05T06:40:23.711Z,30.46
2023-05-05T06:41:23.387Z,30.10
2023-05-05T06:42:23.396Z,30.05
2023-05-05T06:43:23.527Z,30.06
2023-05-05T06:44:23.525Z,30.01
2023-05-05T06:45:23.534Z,30.84
2023-05-05T06:46:23.651Z,30.51
2023-05-05T06:47:23.755Z,30.58
2023-05-05T06:48:23.556Z,30.71
2023-05-05T06:49:23.667Z,30.63
2023-05-05T06:50:23.760Z,30.54
2023-05-05T06:51:23.712Z,30.90
2023-05-05T06:52:24.251Z,30.53
2023-05-05T06:53:24.218Z,30.53
2023-05-05T06:54:23.809Z,30.52
2023-05-05T06:55:24.714Z,30.38
2023-05-05T06:56:24.244Z,30.55
2023-05-05T06:57:24.093Z,30.64
2023-05-05T06:58:24.117Z,30.47
2023-05-05T06:59:24.130Z,30.56
2023-05-05T07:00:24.173Z,30.76
2023-05-05T07:01:24.323Z,30.77
2023-05-05T07:02:26.703Z,30.42
2023-05-05T07:03:24.681Z,30.39
2023-05-05T07:04:24.701Z,30.74
2023-05-05T07:05:24.757Z,30.60
2023-05-05T07:06:24.971Z,30.68
2023-05-05T07:07:24.828Z,30.89
2023-05-05T07:08:25.292Z,30.60
2023-05-05T07:09:25.040Z,30.48
2023-05-05T07:10:25.038Z,30.39
2023-05-05T07:11:25.769Z,30.59
2023-05-05T07:12:25.759Z,30.59
2023-05-05T07:13:25.228Z,30.47
2023-05-05T07:14:25.268Z,30.20
2023-05-05T07:15:29.318Z,30.55
2023-05-05T07:16:25.281Z,30.44
2023-05-05T07:17:25.700Z,30.40
2023-05-05T07:18:26.382Z,30.32
2023-05-05T07:19:25.292Z,30.70
2023-05-05T07:20:25.389Z,30.57
2023-05-05T07:21:25.239Z,30.75
2023-05-05T07:22:25.332Z,30.51
2023-05-05T07:23:25.237Z,30.48
2023-05-05T07:24:25.245Z,30.48
2023-05-05T07:25:25.231Z,30.43
2023-05-05T07:26:25.252Z,30.49
2023-05-05T07:27:25.226Z,30.56
2023-05-05T07:28:25.487Z,30.64
2023-05-05T07:29:25.194Z,30.63
2023-05-05T07:30:25.193Z,30.87
2023-05-05T07:31:25.365Z,30.89
2023-05-05T07:32:26.296Z,30.74
2023-05-05T07:33:25.471Z,31.00
2023-05-05T07:34:25.409Z,30.82
2023-05-05T07:35:26.322Z,30.77
2023-05-05T07:36:25.509Z,30.17
2023-05-05T07:37:26.278Z,29.83
2023-05-05T07:38:25.739Z,29.89
2023-05-05T07:39:25.851Z,30.41
2023-05-05T07:40:26.298Z,30.19
2023-05-05T07:41:25.778Z,30.22
2023-05-05T07:42:25.874Z,30.21
2023-05-05T07:43:25.683Z,30.51
2023-05-05T07:44:26.290Z,30.47
2023-05-05T07:45:25.759Z,30.62
2023-05-05T07:46:25.780Z,30.50
2023-05-05T07:47:26.783Z,30.53
2023-05-05T07:48:25.873Z,30.70
2023-05-05T07:49:25.991Z,30.90
2023-05-05T07:50:26.378Z,30.67
2023-05-05T07:51:26.104Z,30.88
2023-05-05T07:52:43.526Z,30.68
2023-05-05T07:53:27.109Z,30.89
2023-05-05T07:54:26.121Z,31.03
2023-05-05T07:55:26.091Z,30.95
2023-05-05T07:56:26.083Z,31.21
2023-05-05T07:57:26.178Z,30.83
2023-05-05T07:58:26.038Z,31.09
2023-05-05T07:59:26.276Z,31.21
2023-05-05T08:00:26.254Z,31.12
2023-05-05T08:01:26.017Z,30.84
2023-05-05T08:02:26.128Z,30.82
2023-05-05T08:03:26.275Z,30.63
2023-05-05T08:04:26.124Z,30.96
2023-05-05T08:05:26.195Z,30.79
2023-05-05T08:06:26.371Z,30.80
2023-05-05T08:07:26.366Z,30.61
2023-05-05T08:08:26.362Z,30.62
2023-05-05T08:09:27.301Z,30.76
2023-05-05T08:10:26.494Z,30.47
2023-05-05T08:11:27.851Z,30.37
2023-05-05T08:12:26.657Z,30.58
2023-05-05T08:13:26.453Z,30.70
2023-05-05T08:14:26.535Z,30.77
2023-05-05T08:15:26.473Z,30.77
2023-05-05T08:16:26.519Z,30.86
2023-05-05T08:17:26.521Z,30.65
2023-05-05T08:18:26.449Z,30.89
2023-05-05T08:19:29.355Z,30.90
2023-05-05T08:20:27.021Z,30.99
2023-05-05T08:21:26.406Z,30.98
2023-05-05T08:22:26.422Z,30.88
2023-05-05T08:23:26.446Z,30.95
2023-05-05T08:24:27.252Z,31.12
2023-05-05T08:25:26.442Z,31.17
2023-05-05T08:26:26.387Z,30.70
2023-05-05T08:27:26.483Z,29.56
2023-05-05T08:28:26.432Z,28.88
2023-05-05T08:29:27.232Z,28.23
2023-05-05T08:30:26.396Z,27.89
2023-05-05T08:31:26.359Z,27.49
2023-05-05T08:32:28.428Z,27.50
2023-05-05T08:33:26.322Z,27.51
2023-05-05T08:34:26.344Z,27.25
2023-05-05T08:35:26.342Z,27.23
2023-05-05T08:36:26.324Z,27.19
2023-05-05T08:37:27.282Z,27.19
2023-05-05T08:38:26.333Z,27.03
2023-05-05T08:39:27.430Z,26.70
2023-05-05T08:40:26.293Z,26.76
2023-05-05T08:41:26.390Z,26.78
2023-05-05T08:42:36.328Z,26.86
2023-05-05T08:43:30.557Z,26.85
2023-05-05T08:44:26.265Z,26.83
2023-05-05T08:45:26.308Z,26.63
2023-05-05T08:46:26.821Z,26.57
2023-05-05T08:47:26.314Z,26.60
2023-05-05T08:48:26.290Z,26.52
2023-05-05T08:49:26.237Z,26.51
2023-05-05T08:50:26.257Z,26.61
2023-05-05T08:51:26.343Z,26.56
2023-05-05T08:52:26.296Z,26.47
2023-05-05T08:53:26.222Z,26.48
2023-05-05T08:54:28.715Z,26.54
2023-05-05T08:55:26.599Z,26.39
2023-05-05T08:56:26.369Z,26.23
2023-05-05T08:57:26.446Z,26.42
2023-05-05T08:58:28.799Z,26.36
2023-05-05T08:59:26.694Z,26.24
2023-05-05T09:00:26.691Z,26.26
2023-05-05T09:01:26.729Z,26.27
2023-05-05T09:02:26.860Z,26.35
2023-05-05T09:03:26.849Z,26.37
2023-05-05T09:04:27.383Z,26.35
2023-05-05T09:05:26.896Z,26.30
2023-05-05T09:06:26.927Z,26.27
2023-05-05T09:07:27.777Z,26.21
2023-05-05T09:08:26.937Z,26.14
2023-05-05T09:09:26.989Z,26.14
2023-05-05T09:10:27.934Z,26.12
2023-05-05T09:11:27.156Z,26.04
2023-05-05T09:12:27.259Z,26.05
2023-05-05T09:13:27.236Z,26.01
2023-05-05T09:14:27.069Z,26.02
2023-05-05T09:15:27.124Z,26.09
2023-05-05T09:16:27.214Z,26.08
2023-05-05T09:17:28.818Z,26.08
2023-05-05T09:18:27.761Z,26.11
2023-05-05T09:19:27.780Z,26.08
2023-05-05T09:20:27.755Z,26.15
2023-05-05T09:21:27.851Z,26.16
2023-05-05T09:22:27.379Z,26.18
2023-05-05T09:23:27.799Z,26.22
2023-05-05T09:24:27.385Z,26.18
2023-05-05T09:25:27.408Z,26.24
2023-05-05T09:26:27.508Z,26.25
2023-05-05T09:27:27.832Z,26.25
2023-05-05T09:28:27.878Z,26.34
2023-05-05T09:29:27.523Z,26.30
2023-05-05T09:30:27.527Z,26.37
2023-05-05T09:31:27.651Z,26.76
2023-05-05T09:32:29.124Z,26.97
2023-05-05T09:33:27.589Z,27.84
2023-05-05T09:34:27.629Z,27.94
2023-05-05T09:35:27.634Z,29.46
2023-05-05T09:36:27.786Z,28.53
2023-05-05T09:37:27.583Z,29.35
2023-05-05T09:38:27.786Z,30.06
2023-05-05T09:39:27.604Z,30.26
2023-05-05T09:40:27.618Z,30.32
2023-05-05T09:41:27.579Z,30.61
2023-05-05T09:42:27.678Z,30.42
2023-05-05T09:43:27.631Z,30.37
2023-05-05T09:44:27.541Z,30.38
2023-05-05T09:45:27.643Z,30.23
2023-05-05T09:46:27.610Z,30.23
2023-05-05T09:47:29.899Z,30.26
2023-05-05T09:48:27.603Z,30.27
2023-05-05T09:49:27.563Z,30.37
2023-05-05T09:50:27.528Z,30.39
2023-05-05T09:51:27.467Z,30.59
2023-05-05T09:52:27.499Z,30.63
2023-05-05T09:53:27.868Z,30.66
2023-05-05T09:54:27.479Z,30.90
2023-05-05T09:55:27.452Z,30.81
2023-05-05T09:56:27.463Z,30.91
2023-05-05T09:57:27.478Z,30.90
2023-05-05T09:58:27.603Z,30.89
2023-05-05T09:59:27.628Z,30.28
2023-05-05T10:00:27.419Z,30.00
2023-05-05T10:01:27.476Z,28.80
2023-05-05T10:02:27.476Z,29.57
2023-05-05T10:03:28.741Z,29.58
2023-05-05T10:04:27.428Z,29.66
2023-05-05T10:05:27.506Z,29.58
2023-05-05T10:06:27.384Z,29.44
2023-05-05T10:07:27.471Z,29.26
2023-05-05T10:08:27.380Z,29.18
2023-05-05T10:09:27.394Z,28.91
2023-05-05T10:10:29.060Z,29.32
2023-05-05T10:11:27.366Z,28.95
2023-05-05T10:12:27.372Z,29.19
2023-05-05T10:13:28.303Z,29.40
2023-05-05T10:14:27.374Z,29.52
2023-05-05T10:15:27.380Z,29.13
2023-05-05T10:16:29.138Z,28.48
2023-05-05T10:17:27.393Z,29.13
2023-05-05T10:18:27.337Z,28.92
2023-05-05T10:19:27.366Z,28.95
2023-05-05T10:20:27.319Z,29.14
2023-05-05T10:21:27.336Z,29.30
2023-05-05T10:22:27.330Z,29.13
2023-05-05T10:23:27.278Z,29.22
2023-05-05T10:24:27.356Z,29.19
2023-05-05T10:25:27.396Z,28.77
2023-05-05T10:26:27.522Z,28.86
2023-05-05T10:27:27.458Z,29.00
2023-05-05T10:28:27.532Z,28.87
2023-05-05T10:29:27.531Z,29.07
2023-05-05T10:30:27.615Z,29.17
2023-05-05T10:31:27.884Z,28.40
2023-05-05T10:32:51.999Z,28.44
2023-05-05T10:33:32.226Z,28.61
2023-05-05T10:34:27.892Z,28.71
2023-05-05T10:35:27.692Z,29.02
2023-05-05T10:36:27.647Z,28.97
2023-05-05T10:37:27.780Z,29.10
2023-05-05T10:38:27.682Z,29.09
2023-05-05T10:39:27.702Z,29.32
2023-05-05T10:40:27.673Z,28.94
2023-05-05T10:41:27.899Z,29.11
2023-05-05T10:42:27.634Z,29.18
2023-05-05T10:43:27.692Z,29.17
2023-05-05T10:44:27.600Z,28.96
2023-05-05T10:45:27.739Z,29.12
2023-05-05T10:46:27.622Z,28.89
2023-05-05T10:47:27.857Z,28.77
2023-05-05T10:48:27.761Z,28.80
2023-05-05T10:49:27.677Z,28.92
2023-05-05T10:50:27.771Z,28.89
2023-05-05T10:51:39.540Z,28.74
2023-05-05T10:52:29.071Z,28.96
2023-05-05T10:53:27.822Z,28.82
2023-05-05T10:54:27.817Z,28.63
2023-05-05T10:55:27.812Z,29.07
2023-05-05T10:56:27.786Z,29.05
2023-05-05T10:57:27.784Z,28.88
2023-05-05T10:58:27.752Z,28.90
2023-05-05T10:59:27.737Z,28.92
2023-05-05T11:00:27.695Z,29.02
2023-05-05T11:01:27.835Z,28.88
2023-05-05T11:02:28.025Z,29.03
2023-05-05T11:03:27.982Z,28.95
2023-05-05T11:04:27.741Z,28.80
2023-05-05T11:05:27.684Z,28.76
2023-05-05T11:06:27.715Z,28.89
2023-05-05T11:07:27.811Z,29.04
2023-05-05T11:08:27.702Z,29.04
2023-05-05T11:09:27.697Z,29.04
2023-05-05T11:10:27.719Z,29.04
2023-05-05T11:11:28.226Z,29.13
2023-05-05T11:12:27.666Z,29.17
2023-05-05T11:13:27.648Z,29.32
2023-05-05T11:14:27.852Z,29.39
2023-05-05T11:15:27.687Z,29.65
2023-05-05T11:16:27.691Z,29.92
2023-05-05T11:17:27.617Z,30.01
2023-05-05T11:18:27.618Z,30.14
2023-05-05T11:19:27.870Z,30.28
2023-05-05T11:20:27.567Z,28.84
2023-05-05T11:21:27.893Z,28.62
2023-05-05T11:22:27.598Z,28.50
2023-05-05T11:23:27.606Z,28.14
2023-05-05T11:24:27.649Z,28.31
2023-05-05T11:25:27.580Z,27.85
2023-05-05T11:26:27.582Z,27.68
2023-05-05T11:27:27.566Z,27.58
2023-05-05T11:28:27.599Z,27.64
2023-05-05T11:29:27.543Z,27.76
2023-05-05T11:30:27.525Z,27.91
2023-05-05T11:31:27.556Z,27.90
2023-05-05T11:32:27.518Z,28.08
2023-05-05T11:33:27.518Z,28.19
2023-05-05T11:34:27.530Z,28.21
2023-05-05T11:35:27.493Z,28.23
2023-05-05T11:36:27.487Z,28.28
2023-05-05T11:37:27.494Z,28.29
2023-05-05T11:38:27.499Z,28.30
2023-05-05T11:39:27.448Z,28.36
2023-05-05T11:40:27.468Z,28.38
2023-05-05T11:41:27.440Z,28.37
2023-05-05T11:42:27.436Z,28.35
2023-05-05T11:43:27.413Z,28.36
2023-05-05T11:44:27.428Z,28.36
2023-05-05T11:45:27.442Z,28.40
2023-05-05T11:46:27.530Z,28.42
2023-05-05T11:47:27.445Z,28.41
2023-05-05T11:48:27.481Z,28.49
2023-05-05T11:49:27.412Z,28.51
2023-05-05T11:50:27.359Z,28.54
2023-05-05T11:51:27.592Z,28.54
2023-05-05T11:52:27.443Z,28.53
2023-05-05T11:53:27.446Z,28.55
2023-05-05T11:54:27.461Z,28.55
2023-05-05T11:55:27.519Z,28.53
2023-05-05T11:56:27.498Z,28.53
2023-05-05T11:57:27.515Z,28.52
2023-05-05T11:58:27.575Z,28.52
2023-05-05T11:59:27.585Z,28.55
2023-05-05T12:00:27.638Z,28.52
2023-05-05T12:01:27.694Z,28.54
2023-05-05T12:02:27.818Z,28.53
2023-05-05T12:03:27.883Z,28.52
2023-05-05T12:04:27.774Z,28.50
2023-05-05T12:05:28.289Z,28.52
2023-05-05T12:06:27.781Z,28.53
2023-05-05T12:07:27.867Z,28.51
2023-05-05T12:08:27.791Z,28.51
2023-05-05T12:09:27.878Z,28.50
2023-05-05T12:10:27.894Z,28.53
2023-05-05T12:11:27.889Z,28.49
2023-05-05T12:12:27.916Z,28.53
2023-05-05T12:13:27.954Z,28.50
2023-05-05T12:14:27.931Z,28.50
2023-05-05T12:15:27.965Z,28.47
2023-05-05T12:16:28.038Z,28.48
2023-05-05T12:17:28.037Z,28.48
2023-05-05T12:18:28.042Z,28.46
2023-05-05T12:19:28.045Z,28.48
2023-05-05T12:20:28.078Z,28.48
2023-05-05T12:21:28.099Z,28.50
2023-05-05T12:22:28.093Z,28.49
2023-05-05T12:23:28.163Z,28.48
2023-05-05T12:24:28.135Z,28.44
2023-05-05T12:25:28.136Z,28.46
2023-05-05T12:26:28.146Z,28.47
2023-05-05T12:27:28.185Z,28.45
2023-05-05T12:28:28.185Z,28.44
2023-05-05T12:29:28.217Z,28.41
2023-05-05T12:30:28.301Z,28.45
2023-05-05T12:31:28.219Z,28.44
2023-05-05T12:32:28.329Z,28.45
2023-05-05T12:33:28.225Z,28.47
2023-05-05T12:34:28.242Z,28.45
2023-05-05T12:35:28.254Z,28.45
2023-05-05T12:36:29.251Z,28.43
2023-05-05T12:37:28.254Z,28.41
2023-05-05T12:38:28.274Z,28.44
2023-05-05T12:39:28.253Z,28.41
2023-05-05T12:40:28.285Z,28.39
2023-05-05T12:41:28.292Z,28.42
2023-05-05T12:42:28.339Z,28.41
2023-05-05T12:43:28.336Z,28.34
2023-05-05T12:44:28.309Z,28.39
2023-05-05T12:45:28.317Z,28.36
2023-05-05T12:46:28.343Z,28.31
2023-05-05T12:47:28.333Z,28.35
2023-05-05T12:48:28.347Z,28.35
2023-05-05T12:49:28.341Z,28.26
2023-05-05T12:50:28.331Z,28.31
2023-05-05T12:51:28.310Z,28.24
2023-05-05T12:52:28.348Z,28.23
2023-05-05T12:53:28.327Z,28.24